Terminal Aerodrome Forecast
Issued by NWS Blacksburg, VA

Home | Current Version | Previous Version | Text Only | Print | Product List | Glossary On
Versions: 1 2 3 4 5 6 7 8 9 10 11 12 13 14 15 16 17 18 19 20 21 22 23 24 25 26
000
FTUS41 KRNK 241720
TAFLYH
TAF
KLYH 241720Z 2418/2518 21012G25KT P6SM SCT100
     FM242200 21006KT P6SM SCT150
     FM250900 00000KT P6SM BKN150 WS020/23030KT
     FM251500 21008KT P6SM SCT100=

USA.gov is the U.S. government's official web portal to all federal, state and local government web resources and services.